sensor_id;sensor_type;location;lat;lon;timestamp;pressure;altitude;pressure_sealevel;temperature
63113;BMP280;49206;48.020;21.378;2022-11-03T00:00:09;101404.69;;;10.92
63113;BMP280;49206;48.020;21.378;2022-11-03T00:01:14;101405.16;;;10.94
63113;BMP280;49206;48.020;21.378;2022-11-03T00:02:17;101408.28;;;10.96
63113;BMP280;49206;48.020;21.378;2022-11-03T00:03:19;101410.44;;;10.94
63113;BMP280;49206;48.020;21.378;2022-11-03T00:04:22;101412.91;;;10.82
63113;BMP280;49206;48.020;21.378;2022-11-03T00:05:24;101415.91;;;10.89
63113;BMP280;49206;48.020;21.378;2022-11-03T00:06:47;101418.38;;;10.94
63113;BMP280;49206;48.020;21.378;2022-11-03T00:07:49;101413.88;;;10.94
63113;BMP280;49206;48.020;21.378;2022-11-03T00:08:52;101412.81;;;10.95
63113;BMP280;49206;48.020;21.378;2022-11-03T00:09:54;101417.28;;;10.95
63113;BMP280;49206;48.020;21.378;2022-11-03T00:11:11;101409.38;;;10.95
63113;BMP280;49206;48.020;21.378;2022-11-03T00:12:14;101414.16;;;10.84
63113;BMP280;49206;48.020;21.378;2022-11-03T00:13:17;101415.91;;;10.89
63113;BMP280;49206;48.020;21.378;2022-11-03T00:14:19;101407.66;;;10.91
63113;BMP280;49206;48.020;21.378;2022-11-03T00:15:22;101414.06;;;10.90
63113;BMP280;49206;48.020;21.378;2022-11-03T00:16:24;101408.41;;;10.91
63113;BMP280;49206;48.020;21.378;2022-11-03T00:17:27;101408.09;;;10.92
63113;BMP280;49206;48.020;21.378;2022-11-03T00:18:30;101404.06;;;10.95
63113;BMP280;49206;48.020;21.378;2022-11-03T00:19:32;101403.00;;;10.96
63113;BMP280;49206;48.020;21.378;2022-11-03T00:20:34;101402.69;;;10.97
63113;BMP280;49206;48.020;21.378;2022-11-03T00:21:37;101401.59;;;10.90
63113;BMP280;49206;48.020;21.378;2022-11-03T00:22:39;101402.06;;;10.92
63113;BMP280;49206;48.020;21.378;2022-11-03T00:23:43;101396.16;;;10.95
63113;BMP280;49206;48.020;21.378;2022-11-03T00:24:46;101397.84;;;10.91
63113;BMP280;49206;48.020;21.378;2022-11-03T00:25:48;101397.53;;;10.92
63113;BMP280;49206;48.020;21.378;2022-11-03T00:26:50;101401.44;;;10.95
63113;BMP280;49206;48.020;21.378;2022-11-03T00:27:53;101401.25;;;10.91
63113;BMP280;49206;48.020;21.378;2022-11-03T00:29:00;101402.97;;;10.88
63113;BMP280;49206;48.020;21.378;2022-11-03T00:30:02;101410.91;;;10.88
63113;BMP280;49206;48.020;21.378;2022-11-03T00:31:11;101412.78;;;10.87
63113;BMP280;49206;48.020;21.378;2022-11-03T00:32:13;101406.13;;;10.90
63113;BMP280;49206;48.020;21.378;2022-11-03T00:33:16;101409.34;;;10.87
63113;BMP280;49206;48.020;21.378;2022-11-03T00:34:18;101410.75;;;10.84
63113;BMP280;49206;48.020;21.378;2022-11-03T00:35:22;101409.81;;;10.80
63113;BMP280;49206;48.020;21.378;2022-11-03T00:36:44;101404.06;;;10.78
63113;BMP280;49206;48.020;21.378;2022-11-03T00:37:46;101408.44;;;10.83
63113;BMP280;49206;48.020;21.378;2022-11-03T00:38:49;101408.09;;;10.84
63113;BMP280;49206;48.020;21.378;2022-11-03T00:39:51;101404.06;;;10.87
63113;BMP280;49206;48.020;21.378;2022-11-03T00:40:56;101402.22;;;10.87
63113;BMP280;49206;48.020;21.378;2022-11-03T00:41:58;101398.94;;;10.90
63113;BMP280;49206;48.020;21.378;2022-11-03T00:43:01;101403.63;;;10.93
63113;BMP280;49206;48.020;21.378;2022-11-03T00:44:04;101412.00;;;10.95
63113;BMP280;49206;48.020;21.378;2022-11-03T00:45:07;101398.94;;;10.90
63113;BMP280;49206;48.020;21.378;2022-11-03T00:46:10;101404.38;;;10.93
63113;BMP280;49206;48.020;21.378;2022-11-03T00:47:12;101398.63;;;10.91
63113;BMP280;49206;48.020;21.378;2022-11-03T00:48:15;101403.31;;;10.94
63113;BMP280;49206;48.020;21.378;2022-11-03T00:49:33;101398.31;;;10.93
63113;BMP280;49206;48.020;21.378;2022-11-03T00:50:35;101398.50;;;10.88
63113;BMP280;49206;48.020;21.378;2022-11-03T00:51:40;101396.44;;;10.85
63113;BMP280;49206;48.020;21.378;2022-11-03T00:52:42;101393.94;;;10.80
63113;BMP280;49206;48.020;21.378;2022-11-03T00:53:46;101395.50;;;10.81
63113;BMP280;49206;48.020;21.378;2022-11-03T00:54:49;101395.34;;;10.86
63113;BMP280;49206;48.020;21.378;2022-11-03T00:55:56;101395.84;;;10.88
63113;BMP280;49206;48.020;21.378;2022-11-03T00:56:59;101396.94;;;10.87
63113;BMP280;49206;48.020;21.378;2022-11-03T00:58:02;101395.34;;;10.86
63113;BMP280;49206;48.020;21.378;2022-11-03T00:59:06;101397.41;;;10.89
63113;BMP280;49206;48.020;21.378;2022-11-03T01:00:09;101397.84;;;10.91
63113;BMP280;49206;48.020;21.378;2022-11-03T01:01:15;101390.09;;;10.94
63113;BMP280;49206;48.020;21.378;2022-11-03T01:02:18;101396.16;;;10.95
63113;BMP280;49206;48.020;21.378;2022-11-03T01:03:21;101392.41;;;10.96
63113;BMP280;49206;48.020;21.378;2022-11-03T01:04:23;101392.41;;;10.96
63113;BMP280;49206;48.020;21.378;2022-11-03T01:05:44;101383.88;;;10.91
63113;BMP280;49206;48.020;21.378;2022-11-03T01:07:06;101386.66;;;10.94
63113;BMP280;49206;48.020;21.378;2022-11-03T01:08:08;101380.59;;;10.93
63113;BMP280;49206;48.020;21.378;2022-11-03T01:09:11;101382.94;;;10.95
63113;BMP280;49206;48.020;21.378;2022-11-03T01:10:13;101378.72;;;10.94
63113;BMP280;49206;48.020;21.378;2022-11-03T01:11:18;101385.56;;;10.95
63113;BMP280;49206;48.020;21.378;2022-11-03T01:12:39;101381.84;;;10.96
63113;BMP280;49206;48.020;21.378;2022-11-03T01:13:41;101381.97;;;10.91
63113;BMP280;49206;48.020;21.378;2022-11-03T01:14:45;101381.53;;;10.97
63113;BMP280;49206;48.020;21.378;2022-11-03T01:15:48;101388.38;;;10.98
63113;BMP280;49206;48.020;21.378;2022-11-03T01:16:50;101385.75;;;10.98
63113;BMP280;49206;48.020;21.378;2022-11-03T01:17:54;101386.66;;;10.94
63113;BMP280;49206;48.020;21.378;2022-11-03T01:18:56;101383.72;;;10.95
63113;BMP280;49206;48.020;21.378;2022-11-03T01:19:59;101375.00;;;10.95
63113;BMP280;49206;48.020;21.378;2022-11-03T01:21:01;101378.56;;;10.99
63113;BMP280;49206;48.020;21.378;2022-11-03T01:22:04;101376.38;;;10.92
63113;BMP280;49206;48.020;21.378;2022-11-03T01:23:11;101371.28;;;10.96
63113;BMP280;49206;48.020;21.378;2022-11-03T01:24:14;101375.16;;;10.98
63113;BMP280;49206;48.020;21.378;2022-11-03T01:25:16;101376.72;;;10.99
63113;BMP280;49206;48.020;21.378;2022-11-03T01:26:19;101375.34;;;11.02
63113;BMP280;49206;48.020;21.378;2022-11-03T01:27:21;101373.78;;;11.01
63113;BMP280;49206;48.020;21.378;2022-11-03T01:28:26;101379.53;;;11.03
63113;BMP280;49206;48.020;21.378;2022-11-03T01:29:30;101385.91;;;11.02
63113;BMP280;49206;48.020;21.378;2022-11-03T01:30:34;101385.91;;;11.02
63113;BMP280;49206;48.020;21.378;2022-11-03T01:31:36;101381.38;;;11.02
63113;BMP280;49206;48.020;21.378;2022-11-03T01:32:39;101381.09;;;11.04
63113;BMP280;49206;48.020;21.378;2022-11-03T01:33:42;101383.56;;;11.00
63113;BMP280;49206;48.020;21.378;2022-11-03T01:34:46;101386.66;;;11.02
63113;BMP280;49206;48.020;21.378;2022-11-03T01:35:52;101382.63;;;11.05
63113;BMP280;49206;48.020;21.378;2022-11-03T01:36:54;101385.28;;;11.05
63113;BMP280;49206;48.020;21.378;2022-11-03T01:37:57;101382.19;;;11.03
63113;BMP280;49206;48.020;21.378;2022-11-03T01:38:59;101382.97;;;11.03
63113;BMP280;49206;48.020;21.378;2022-11-03T01:40:02;101376.88;;;11.03
63113;BMP280;49206;48.020;21.378;2022-11-03T01:41:06;101380.78;;;11.05
63113;BMP280;49206;48.020;21.378;2022-11-03T01:42:11;101371.94;;;11.10
63113;BMP280;49206;48.020;21.378;2022-11-03T01:43:20;101375.16;;;11.07
63113;BMP280;49206;48.020;21.378;2022-11-03T01:44:47;101391.03;;;11.07
63113;BMP280;49206;48.020;21.378;2022-11-03T01:47:12;101389.34;;;11.11
63113;BMP280;49206;48.020;21.378;2022-11-03T01:48:16;101390.56;;;11.05
63113;BMP280;49206;48.020;21.378;2022-11-03T01:49:36;101390.56;;;11.05
63113;BMP280;49206;48.020;21.378;2022-11-03T01:50:41;101383.72;;;11.04
63113;BMP280;49206;48.020;21.378;2022-11-03T01:51:49;101382.19;;;11.03
63113;BMP280;49206;48.020;21.378;2022-11-03T01:52:55;101383.72;;;11.04
63113;BMP280;49206;48.020;21.378;2022-11-03T01:54:05;101380.00;;;11.05
63113;BMP280;49206;48.020;21.378;2022-11-03T01:55:25;101372.06;;;11.05
63113;BMP280;49206;48.020;21.378;2022-11-03T01:56:31;101362.28;;;11.05
63113;BMP280;49206;48.020;21.378;2022-11-03T01:57:44;101363.66;;;11.11
63113;BMP280;49206;48.020;21.378;2022-11-03T01:58:49;101362.72;;;11.07
63113;BMP280;49206;48.020;21.378;2022-11-03T01:59:53;101356.66;;;10.98
63113;BMP280;49206;48.020;21.378;2022-11-03T02:01:00;101356.50;;;10.95
63113;BMP280;49206;48.020;21.378;2022-11-03T02:02:03;101359.31;;;11.07
63113;BMP280;49206;48.020;21.378;2022-11-03T02:03:06;101363.97;;;11.01
63113;BMP280;49206;48.020;21.378;2022-11-03T02:04:40;101372.53;;;10.98
63113;BMP280;49206;48.020;21.378;2022-11-03T02:05:44;101370.50;;;10.95
63113;BMP280;49206;48.020;21.378;2022-11-03T02:06:57;101368.97;;;10.94
63113;BMP280;49206;48.020;21.378;2022-11-03T02:08:08;101375.16;;;10.90
63113;BMP280;49206;48.020;21.378;2022-11-03T02:09:12;101367.06;;;10.78
63113;BMP280;49206;48.020;21.378;2022-11-03T02:10:14;101370.63;;;10.82
63113;BMP280;49206;48.020;21.378;2022-11-03T02:11:17;101372.34;;;10.78
63113;BMP280;49206;48.020;21.378;2022-11-03T02:12:38;101373.91;;;10.79
63113;BMP280;49206;48.020;21.378;2022-11-03T02:13:40;101368.56;;;10.71
63113;BMP280;49206;48.020;21.378;2022-11-03T02:14:49;101373.72;;;10.67
63113;BMP280;49206;48.020;21.378;2022-11-03T02:15:55;101369.97;;;10.68
63113;BMP280;49206;48.020;21.378;2022-11-03T02:17:01;101373.56;;;10.64
63113;BMP280;49206;48.020;21.378;2022-11-03T02:18:06;101369.53;;;10.66
63113;BMP280;49206;48.020;21.378;2022-11-03T02:20:27;101372.47;;;10.65
63113;BMP280;49206;48.020;21.378;2022-11-03T02:21:47;101376.50;;;10.62
63113;BMP280;49206;48.020;21.378;2022-11-03T02:23:03;101375.91;;;10.65
63113;BMP280;49206;48.020;21.378;2022-11-03T02:25:43;101379.28;;;10.57
63113;BMP280;49206;48.020;21.378;2022-11-03T02:26:47;101377.56;;;10.61
63113;BMP280;49206;48.020;21.378;2022-11-03T02:27:50;101385.97;;;10.63
63113;BMP280;49206;48.020;21.378;2022-11-03T02:28:52;101378.03;;;10.63
63113;BMP280;49206;48.020;21.378;2022-11-03T02:29:55;101379.44;;;10.61
63113;BMP280;49206;48.020;21.378;2022-11-03T02:32:21;101377.56;;;10.61
63113;BMP280;49206;48.020;21.378;2022-11-03T02:36:23;101376.38;;;10.67
63113;BMP280;49206;48.020;21.378;2022-11-03T02:37:31;101375.25;;;10.68
63113;BMP280;49206;48.020;21.378;2022-11-03T02:38:38;101374.19;;;10.69
63113;BMP280;49206;48.020;21.378;2022-11-03T02:39:52;101379.81;;;10.68
63113;BMP280;49206;48.020;21.378;2022-11-03T02:40:59;101381.31;;;10.69
63113;BMP280;49206;48.020;21.378;2022-11-03T02:42:04;101378.84;;;10.72
63113;BMP280;49206;48.020;21.378;2022-11-03T02:43:09;101376.69;;;10.74
63113;BMP280;49206;48.020;21.378;2022-11-03T02:44:17;101374.81;;;10.75
63113;BMP280;49206;48.020;21.378;2022-11-03T02:45:22;101385.38;;;10.75
63113;BMP280;49206;48.020;21.378;2022-11-03T02:46:27;101383.03;;;10.73
63113;BMP280;49206;48.020;21.378;2022-11-03T02:47:33;101383.03;;;10.73
63113;BMP280;49206;48.020;21.378;2022-11-03T02:48:39;101380.91;;;10.75
63113;BMP280;49206;48.020;21.378;2022-11-03T02:49:45;101385.56;;;10.78
63113;BMP280;49206;48.020;21.378;2022-11-03T02:50:48;101383.69;;;10.79
63113;BMP280;49206;48.020;21.378;2022-11-03T02:52:01;101387.56;;;10.81
63113;BMP280;49206;48.020;21.378;2022-11-03T02:53:03;101383.84;;;10.82
63113;BMP280;49206;48.020;21.378;2022-11-03T02:54:22;101383.97;;;10.77
63113;BMP280;49206;48.020;21.378;2022-11-03T02:55:39;101396.31;;;10.82
63113;BMP280;49206;48.020;21.378;2022-11-03T02:56:49;101392.56;;;10.83
63113;BMP280;49206;48.020;21.378;2022-11-03T02:59:15;101391.13;;;10.77
63113;BMP280;49206;48.020;21.378;2022-11-03T03:00:19;101396.31;;;10.82
63113;BMP280;49206;48.020;21.378;2022-11-03T03:01:34;101392.09;;;10.81
63113;BMP280;49206;48.020;21.378;2022-11-03T03:02:46;101398.63;;;10.83
63113;BMP280;49206;48.020;21.378;2022-11-03T03:04:05;101392.69;;;10.78
63113;BMP280;49206;48.020;21.378;2022-11-03T03:05:10;101398.16;;;10.81
63113;BMP280;49206;48.020;21.378;2022-11-03T03:07:31;101399.38;;;10.83
63113;BMP280;49206;48.020;21.378;2022-11-03T03:08:40;101394.41;;;10.82
63113;BMP280;49206;48.020;21.378;2022-11-03T03:09:49;101391.47;;;10.75
63113;BMP280;49206;48.020;21.378;2022-11-03T03:10:54;101394.53;;;10.77
63113;BMP280;49206;48.020;21.378;2022-11-03T03:11:59;101399.41;;;10.75
63113;BMP280;49206;48.020;21.378;2022-11-03T03:13:03;101405.91;;;10.78
63113;BMP280;49206;48.020;21.378;2022-11-03T03:14:14;101404.22;;;10.82
63113;BMP280;49206;48.020;21.378;2022-11-03T03:15:19;101405.44;;;10.84
63113;BMP280;49206;48.020;21.378;2022-11-03T03:16:29;101410.44;;;10.86
63113;BMP280;49206;48.020;21.378;2022-11-03T03:17:58;101405.44;;;10.84
63113;BMP280;49206;48.020;21.378;2022-11-03T03:19:08;101404.88;;;10.87
63113;BMP280;49206;48.020;21.378;2022-11-03T03:20:19;101408.75;;;10.90
63113;BMP280;49206;48.020;21.378;2022-11-03T03:21:30;101410.00;;;10.92
63113;BMP280;49206;48.020;21.378;2022-11-03T03:23:51;101413.09;;;10.86
63113;BMP280;49206;48.020;21.378;2022-11-03T03:25:02;101415.09;;;10.88
63113;BMP280;49206;48.020;21.378;2022-11-03T03:26:10;101410.75;;;10.84
63113;BMP280;49206;48.020;21.378;2022-11-03T03:27:15;101410.91;;;10.88
63113;BMP280;49206;48.020;21.378;2022-11-03T03:28:23;101413.84;;;10.86
63113;BMP280;49206;48.020;21.378;2022-11-03T03:29:39;101418.06;;;10.87
63113;BMP280;49206;48.020;21.378;2022-11-03T03:30:45;101419.63;;;10.88
63113;BMP280;49206;48.020;21.378;2022-11-03T03:31:54;101414.63;;;10.87
63113;BMP280;49206;48.020;21.378;2022-11-03T03:32:58;101419.13;;;10.86
63113;BMP280;49206;48.020;21.378;2022-11-03T03:34:04;101416.50;;;10.86
63113;BMP280;49206;48.020;21.378;2022-11-03T03:35:29;101415.91;;;10.89
63113;BMP280;49206;48.020;21.378;2022-11-03T03:36:33;101408.75;;;10.90
63113;BMP280;49206;48.020;21.378;2022-11-03T03:37:44;101405.03;;;10.91
63113;BMP280;49206;48.020;21.378;2022-11-03T03:38:58;101406.41;;;10.88
63113;BMP280;49206;48.020;21.378;2022-11-03T03:40:06;101405.31;;;10.89
63113;BMP280;49206;48.020;21.378;2022-11-03T03:41:12;101405.03;;;10.91
63113;BMP280;49206;48.020;21.378;2022-11-03T03:42:25;101403.47;;;10.90
63113;BMP280;49206;48.020;21.378;2022-11-03T03:43:31;101409.53;;;10.90
63113;BMP280;49206;48.020;21.378;2022-11-03T03:44:42;101407.81;;;10.94
63113;BMP280;49206;48.020;21.378;2022-11-03T03:45:47;101409.66;;;10.93
63113;BMP280;49206;48.020;21.378;2022-11-03T03:47:02;101411.53;;;10.93
63113;BMP280;49206;48.020;21.378;2022-11-03T03:48:06;101411.03;;;10.91
63113;BMP280;49206;48.020;21.378;2022-11-03T03:49:08;101409.66;;;10.93
63113;BMP280;49206;48.020;21.378;2022-11-03T03:50:11;101405.47;;;10.92
63113;BMP280;49206;48.020;21.378;2022-11-03T03:51:17;101410.00;;;10.92
63113;BMP280;49206;48.020;21.378;2022-11-03T03:52:22;101416.03;;;10.92
63113;BMP280;49206;48.020;21.378;2022-11-03T03:53:26;101414.47;;;10.83
63113;BMP280;49206;48.020;21.378;2022-11-03T03:54:32;101418.06;;;10.87
63113;BMP280;49206;48.020;21.378;2022-11-03T03:55:38;101419.94;;;10.87
63113;BMP280;49206;48.020;21.378;2022-11-03T03:56:50;101420.22;;;10.85
63113;BMP280;49206;48.020;21.378;2022-11-03T03:57:53;101413.09;;;10.86
63113;BMP280;49206;48.020;21.378;2022-11-03T03:59:01;101413.25;;;10.89
63113;BMP280;49206;48.020;21.378;2022-11-03T04:00:03;101406.56;;;10.91
63113;BMP280;49206;48.020;21.378;2022-11-03T04:01:13;101411.03;;;10.91
63113;BMP280;49206;48.020;21.378;2022-11-03T04:02:15;101410.91;;;10.88
63113;BMP280;49206;48.020;21.378;2022-11-03T04:03:20;101410.63;;;10.89
63113;BMP280;49206;48.020;21.378;2022-11-03T04:04:24;101408.75;;;10.90
63113;BMP280;49206;48.020;21.378;2022-11-03T04:05:26;101403.63;;;10.93
63113;BMP280;49206;48.020;21.378;2022-11-03T04:06:29;101405.03;;;10.91
63113;BMP280;49206;48.020;21.378;2022-11-03T04:07:31;101406.41;;;10.88
63113;BMP280;49206;48.020;21.378;2022-11-03T04:08:49;101406.88;;;10.90
63113;BMP280;49206;48.020;21.378;2022-11-03T04:09:52;101400.84;;;10.90
63113;BMP280;49206;48.020;21.378;2022-11-03T04:10:54;101395.66;;;10.84
63113;BMP280;49206;48.020;21.378;2022-11-03T04:12:15;101407.81;;;10.86
63113;BMP280;49206;48.020;21.378;2022-11-03T04:13:36;101404.25;;;10.90
63113;BMP280;49206;48.020;21.378;2022-11-03T04:14:57;101413.38;;;10.92
63113;BMP280;49206;48.020;21.378;2022-11-03T04:16:21;101405.34;;;10.97
63113;BMP280;49206;48.020;21.378;2022-11-03T04:17:47;101416.03;;;10.92
63113;BMP280;49206;48.020;21.378;2022-11-03T04:19:11;101413.09;;;10.94
63113;BMP280;49206;48.020;21.378;2022-11-03T04:20:32;101420.22;;;10.93
63113;BMP280;49206;48.020;21.378;2022-11-03T04:21:54;101415.44;;;10.95
63113;BMP280;49206;48.020;21.378;2022-11-03T04:23:16;101410.75;;;10.92
63113;BMP280;49206;48.020;21.378;2022-11-03T04:24:18;101415.75;;;10.94
63113;BMP280;49206;48.020;21.378;2022-11-03T04:25:21;101413.25;;;10.89
63113;BMP280;49206;48.020;21.378;2022-11-03T04:26:23;101412.19;;;10.98
63113;BMP280;49206;48.020;21.378;2022-11-03T04:27:36;101416.22;;;10.96
63113;BMP280;49206;48.020;21.378;2022-11-03T04:28:39;101409.66;;;10.93
63113;BMP280;49206;48.020;21.378;2022-11-03T04:29:42;101415.91;;;10.89
63113;BMP280;49206;48.020;21.378;2022-11-03T04:30:45;101413.84;;;10.86
63113;BMP280;49206;48.020;21.378;2022-11-03T04:31:48;101413.38;;;10.84
63113;BMP280;49206;48.020;21.378;2022-11-03T04:32:51;101417.00;;;10.88
63113;BMP280;49206;48.020;21.378;2022-11-03T04:33:54;101413.84;;;10.86
63113;BMP280;49206;48.020;21.378;2022-11-03T04:35:17;101406.72;;;10.87
63113;BMP280;49206;48.020;21.378;2022-11-03T04:36:22;101408.28;;;10.88
63113;BMP280;49206;48.020;21.378;2022-11-03T04:37:27;101408.41;;;10.91
63113;BMP280;49206;48.020;21.378;2022-11-03T04:38:35;101409.66;;;10.93
63113;BMP280;49206;48.020;21.378;2022-11-03T04:39:41;101408.59;;;10.94
63113;BMP280;49206;48.020;21.378;2022-11-03T04:40:55;101411.03;;;10.91
63113;BMP280;49206;48.020;21.378;2022-11-03T04:41:58;101409.66;;;10.93
63113;BMP280;49206;48.020;21.378;2022-11-03T04:43:03;101412.97;;;10.91
63113;BMP280;49206;48.020;21.378;2022-11-03T04:44:14;101407.66;;;10.91
63113;BMP280;49206;48.020;21.378;2022-11-03T04:46:27;101415.72;;;10.86
63113;BMP280;49206;48.020;21.378;2022-11-03T04:47:30;101419.13;;;10.86
63113;BMP280;49206;48.020;21.378;2022-11-03T04:48:33;101412.00;;;10.87
63113;BMP280;49206;48.020;21.378;2022-11-03T04:49:36;101415.44;;;10.87
63113;BMP280;49206;48.020;21.378;2022-11-03T04:51:14;101420.88;;;10.91
63113;BMP280;49206;48.020;21.378;2022-11-03T04:52:19;101421.50;;;10.96
63113;BMP280;49206;48.020;21.378;2022-11-03T04:53:22;101423.03;;;10.88
63113;BMP280;49206;48.020;21.378;2022-11-03T04:54:25;101426.25;;;10.77
63113;BMP280;49206;48.020;21.378;2022-11-03T04:55:28;101424.09;;;10.79
63113;BMP280;49206;48.020;21.378;2022-11-03T04:56:30;101427.69;;;10.83
63113;BMP280;49206;48.020;21.378;2022-11-03T04:57:34;101430.94;;;10.80
63113;BMP280;49206;48.020;21.378;2022-11-03T04:58:37;101437.94;;;10.84
63113;BMP280;49206;48.020;21.378;2022-11-03T04:59:40;101427.69;;;10.83
63113;BMP280;49206;48.020;21.378;2022-11-03T05:00:44;101431.75;;;10.81
63113;BMP280;49206;48.020;21.378;2022-11-03T05:01:47;101432.22;;;10.83
63113;BMP280;49206;48.020;21.378;2022-11-03T05:02:50;101430.78;;;10.85
63113;BMP280;49206;48.020;21.378;2022-11-03T05:04:00;101425.50;;;10.85
63113;BMP280;49206;48.020;21.378;2022-11-03T05:05:14;101428.31;;;10.88
63113;BMP280;49206;48.020;21.378;2022-11-03T05:06:29;101431.69;;;10.72
63113;BMP280;49206;48.020;21.378;2022-11-03T05:07:33;101433.25;;;10.73
63113;BMP280;49206;48.020;21.378;2022-11-03T05:08:54;101431.69;;;10.72
63113;BMP280;49206;48.020;21.378;2022-11-03T05:09:58;101436.38;;;10.75
63113;BMP280;49206;48.020;21.378;2022-11-03T05:11:28;101432.34;;;10.78
63113;BMP280;49206;48.020;21.378;2022-11-03T05:12:28;101433.13;;;10.78
63113;BMP280;49206;48.020;21.378;2022-11-03T05:13:31;101439.75;;;10.76
63113;BMP280;49206;48.020;21.378;2022-11-03T05:14:35;101439.34;;;10.82
63113;BMP280;49206;48.020;21.378;2022-11-03T05:15:42;101439.66;;;10.81
63113;BMP280;49206;48.020;21.378;2022-11-03T05:16:46;101441.22;;;10.82
63113;BMP280;49206;48.020;21.378;2022-11-03T05:17:48;101448.34;;;10.81
63113;BMP280;49206;48.020;21.378;2022-11-03T05:18:55;101447.69;;;10.76
63113;BMP280;49206;48.020;21.378;2022-11-03T05:21:06;101442.25;;;10.72
63113;BMP280;49206;48.020;21.378;2022-11-03T05:21:51;101437.59;;;10.69
63113;BMP280;49206;48.020;21.378;2022-11-03T05:22:56;101447.09;;;10.70
63113;BMP280;49206;48.020;21.378;2022-11-03T05:24:02;101447.25;;;10.74
63113;BMP280;49206;48.020;21.378;2022-11-03T05:25:32;101447.41;;;10.77
63113;BMP280;49206;48.020;21.378;2022-11-03T05:26:36;101445.84;;;10.76
63113;BMP280;49206;48.020;21.378;2022-11-03T05:27:41;101451.56;;;10.70
63113;BMP280;49206;48.020;21.378;2022-11-03T05:28:47;101448.13;;;10.61
63113;BMP280;49206;48.020;21.378;2022-11-03T05:29:51;101449.38;;;10.63
63113;BMP280;49206;48.020;21.378;2022-11-03T05:31:52;101454.94;;;10.62
63113;BMP280;49206;48.020;21.378;2022-11-03T05:32:32;101453.91;;;10.71
63113;BMP280;49206;48.020;21.378;2022-11-03T05:33:38;101454.38;;;10.73
63113;BMP280;49206;48.020;21.378;2022-11-03T05:34:56;101456.56;;;10.71
63113;BMP280;49206;48.020;21.378;2022-11-03T05:36:10;101460.28;;;10.70
63113;BMP280;49206;48.020;21.378;2022-11-03T05:37:31;101460.59;;;10.69
63113;BMP280;49206;48.020;21.378;2022-11-03T05:38:34;101463.41;;;10.72
63113;BMP280;49206;48.020;21.378;2022-11-03T05:39:39;101458.41;;;10.71
63113;BMP280;49206;48.020;21.378;2022-11-03T05:40:43;101464.97;;;10.73
63113;BMP280;49206;48.020;21.378;2022-11-03T05:41:46;101456.41;;;10.76
63113;BMP280;49206;48.020;21.378;2022-11-03T05:42:52;101466.38;;;10.79
63113;BMP280;49206;48.020;21.378;2022-11-03T05:44:00;101454.44;;;10.82
63113;BMP280;49206;48.020;21.378;2022-11-03T05:45:14;101460.94;;;10.84
63113;BMP280;49206;48.020;21.378;2022-11-03T05:46:22;101467.31;;;10.83
63113;BMP280;49206;48.020;21.378;2022-11-03T05:47:38;101470.72;;;10.83
63113;BMP280;49206;48.020;21.378;2022-11-03T05:48:41;101468.28;;;10.87
63113;BMP280;49206;48.020;21.378;2022-11-03T05:49:53;101470.94;;;10.87
63113;BMP280;49206;48.020;21.378;2022-11-03T05:52:21;101470.94;;;10.87
63113;BMP280;49206;48.020;21.378;2022-11-03T05:53:39;101474.03;;;10.89
63113;BMP280;49206;48.020;21.378;2022-11-03T05:54:46;101468.59;;;10.86
63113;BMP280;49206;48.020;21.378;2022-11-03T05:55:51;101473.56;;;10.87
63113;BMP280;49206;48.020;21.378;2022-11-03T05:57:09;101476.97;;;10.88
63113;BMP280;49206;48.020;21.378;2022-11-03T05:58:38;101480.88;;;10.90
63113;BMP280;49206;48.020;21.378;2022-11-03T05:59:45;101474.84;;;10.90
63113;BMP280;49206;48.020;21.378;2022-11-03T06:01:43;101481.34;;;10.92
63113;BMP280;49206;48.020;21.378;2022-11-03T06:02:36;101476.06;;;10.92
63113;BMP280;49206;48.020;21.378;2022-11-03T06:03:47;101477.63;;;10.93
63113;BMP280;49206;48.020;21.378;2022-11-03T06:04:54;101479.47;;;10.92
63113;BMP280;49206;48.020;21.378;2022-11-03T06:08:31;101485.88;;;11.00
63113;BMP280;49206;48.020;21.378;2022-11-03T06:09:42;101484.63;;;10.97
63113;BMP280;49206;48.020;21.378;2022-11-03T06:10:53;101483.09;;;10.96
63113;BMP280;49206;48.020;21.378;2022-11-03T06:11:58;101487.28;;;10.97
63113;BMP280;49206;48.020;21.378;2022-11-03T06:13:20;101484.63;;;10.97
63113;BMP280;49206;48.020;21.378;2022-11-03T06:14:27;101480.72;;;10.95
63113;BMP280;49206;48.020;21.378;2022-11-03T06:15:33;101484.75;;;10.92
63113;BMP280;49206;48.020;21.378;2022-11-03T06:16:39;101482.72;;;10.81
63113;BMP280;49206;48.020;21.378;2022-11-03T06:17:42;101481.81;;;10.86
63113;BMP280;49206;48.020;21.378;2022-11-03T06:18:46;101486.16;;;10.90
63113;BMP280;49206;48.020;21.378;2022-11-03T06:19:52;101484.31;;;10.91
63113;BMP280;49206;48.020;21.378;2022-11-03T06:20:57;101488.38;;;10.96
63113;BMP280;49206;48.020;21.378;2022-11-03T06:22:11;101485.25;;;10.94
63113;BMP280;49206;48.020;21.378;2022-11-03T06:23:17;101490.72;;;10.98
63113;BMP280;49206;48.020;21.378;2022-11-03T06:24:25;101486.94;;;10.99
63113;BMP280;49206;48.020;21.378;2022-11-03T06:25:37;101493.34;;;10.98
63113;BMP280;49206;48.020;21.378;2022-11-03T06:26:51;101494.00;;;11.03
63113;BMP280;49206;48.020;21.378;2022-11-03T06:28:17;101494.13;;;11.07
63113;BMP280;49206;48.020;21.378;2022-11-03T06:29:24;101495.69;;;11.08
63113;BMP280;49206;48.020;21.378;2022-11-03T06:30:38;101496.78;;;11.07
63113;BMP280;49206;48.020;21.378;2022-11-03T06:31:47;101494.47;;;11.05
63113;BMP280;49206;48.020;21.378;2022-11-03T06:32:57;101491.19;;;11.08
63113;BMP280;49206;48.020;21.378;2022-11-03T06:34:49;101491.03;;;11.05
63113;BMP280;49206;48.020;21.378;2022-11-03T06:36:00;101496.50;;;11.08
63113;BMP280;49206;48.020;21.378;2022-11-03T06:37:18;101493.34;;;10.98